createdAt,value
2018-03-29T00:00:24.687Z,4.88
2018-03-29T00:01:24.591Z,4.72
2018-03-29T00:02:24.514Z,4.75
2018-03-29T00:03:24.432Z,4.77
2018-03-29T00:04:24.351Z,4.72
2018-03-29T00:05:24.270Z,4.75
2018-03-29T00:06:24.193Z,4.75
2018-03-29T00:07:24.108Z,4.77
2018-03-29T00:08:24.029Z,4.73
2018-03-29T00:09:23.945Z,4.72
2018-03-29T00:10:23.863Z,4.72
2018-03-29T00:11:23.836Z,4.77
2018-03-29T00:12:23.703Z,4.73
2018-03-29T00:13:23.623Z,4.66
2018-03-29T00:14:23.541Z,4.66
2018-03-29T00:15:23.460Z,4.70
2018-03-29T00:16:23.381Z,4.80
2018-03-29T00:17:23.296Z,4.67
2018-03-29T00:18:23.216Z,4.72
2018-03-29T00:19:23.135Z,4.63
2018-03-29T00:20:23.056Z,4.62
2018-03-29T00:21:22.976Z,4.65
2018-03-29T00:22:22.891Z,4.62
2018-03-29T00:23:22.811Z,4.65
2018-03-29T00:24:22.734Z,4.67
2018-03-29T00:25:22.684Z,4.73
2018-03-29T00:26:22.575Z,4.65
2018-03-29T00:27:22.487Z,4.73
2018-03-29T00:28:22.412Z,4.72
2018-03-29T00:29:22.326Z,4.72
2018-03-29T00:30:22.243Z,4.72
2018-03-29T00:31:22.168Z,4.70
2018-03-29T00:32:22.084Z,4.70
2018-03-29T00:33:22.002Z,4.78
2018-03-29T00:34:21.939Z,4.78
2018-03-29T00:35:21.862Z,4.77
2018-03-29T00:36:21.762Z,4.75
2018-03-29T00:37:21.703Z,4.85
2018-03-29T00:38:21.598Z,4.77
2018-03-29T00:39:21.528Z,4.73
2018-03-29T00:40:21.436Z,4.85
2018-03-29T00:41:21.353Z,4.88
2018-03-29T00:42:21.274Z,4.78
2018-03-29T00:43:21.195Z,4.88
2018-03-29T00:44:21.110Z,4.82
2018-03-29T00:45:21.037Z,4.91
2018-03-29T00:46:20.949Z,4.88
2018-03-29T00:47:20.870Z,4.96
2018-03-29T00:48:20.795Z,4.88
2018-03-29T00:49:20.706Z,4.97
2018-03-29T00:50:20.624Z,4.92
2018-03-29T00:51:20.547Z,4.85
2018-03-29T00:52:20.466Z,4.89
2018-03-29T00:53:20.384Z,4.88
2018-03-29T00:54:20.302Z,4.96
2018-03-29T00:55:20.228Z,4.92
2018-03-29T00:56:20.158Z,4.88
2018-03-29T00:57:20.064Z,4.91
2018-03-29T00:58:19.985Z,4.96
2018-03-29T00:59:19.900Z,4.89
2018-03-29T01:00:19.819Z,4.89
2018-03-29T01:01:19.740Z,4.89
2018-03-29T01:02:19.656Z,4.94
2018-03-29T01:03:19.579Z,4.99
2018-03-29T01:04:19.494Z,4.96
2018-03-29T01:05:19.418Z,5.02
2018-03-29T01:06:19.335Z,4.92
2018-03-29T01:07:19.252Z,4.92
2018-03-29T01:08:19.174Z,4.97
2018-03-29T01:09:19.090Z,5.00
2018-03-29T01:10:19.009Z,4.94
2018-03-29T01:11:18.928Z,4.92
2018-03-29T01:12:18.850Z,4.96
2018-03-29T01:13:18.782Z,4.99
2018-03-29T01:14:18.688Z,5.00
2018-03-29T01:15:18.608Z,5.00
2018-03-29T01:16:18.528Z,5.04
2018-03-29T01:17:18.444Z,5.03
2018-03-29T01:18:18.365Z,5.04
2018-03-29T01:19:18.281Z,5.03
2018-03-29T01:20:18.197Z,5.04
2018-03-29T01:21:18.123Z,5.04
2018-03-29T01:22:18.044Z,5.03
2018-03-29T01:23:17.961Z,5.09
2018-03-29T01:24:17.879Z,5.09
2018-03-29T01:25:17.800Z,5.03
2018-03-29T01:26:17.720Z,5.03
2018-03-29T01:27:17.638Z,5.00
2018-03-29T01:28:17.558Z,5.02
2018-03-29T01:29:17.478Z,5.10
2018-03-29T01:30:17.394Z,5.03
2018-03-29T01:31:17.315Z,5.03
2018-03-29T01:32:17.233Z,5.00
2018-03-29T01:33:17.153Z,4.97
2018-03-29T01:34:17.073Z,4.96
2018-03-29T01:35:16.993Z,4.99
2018-03-29T01:36:16.911Z,5.10
2018-03-29T01:37:16.834Z,5.09
2018-03-29T01:38:16.749Z,5.06
2018-03-29T01:39:16.669Z,5.02
2018-03-29T01:40:16.587Z,5.03
2018-03-29T01:41:16.512Z,5.06
2018-03-29T01:42:16.425Z,5.00
2018-03-29T01:43:16.345Z,5.07
2018-03-29T01:44:16.263Z,5.07
2018-03-29T01:45:16.184Z,5.02
2018-03-29T01:46:16.103Z,5.03
2018-03-29T01:47:16.022Z,5.07
2018-03-29T01:48:15.941Z,5.06
2018-03-29T01:49:15.861Z,5.20
2018-03-29T01:50:15.780Z,5.04
2018-03-29T01:51:15.699Z,5.12
2018-03-29T01:52:15.618Z,5.10
2018-03-29T01:53:15.536Z,5.17
2018-03-29T01:54:15.457Z,5.03
2018-03-29T01:55:15.381Z,5.12
2018-03-29T01:56:15.301Z,5.10
2018-03-29T01:57:15.215Z,5.18
2018-03-29T01:58:15.133Z,5.09
2018-03-29T01:59:15.053Z,5.03
2018-03-29T02:00:14.972Z,5.10
2018-03-29T02:01:14.896Z,5.03
2018-03-29T02:02:14.811Z,5.06
2018-03-29T02:03:14.731Z,5.17
2018-03-29T02:04:14.653Z,5.13
2018-03-29T02:05:14.575Z,5.17
2018-03-29T02:06:14.486Z,5.13
2018-03-29T02:07:14.406Z,5.18
2018-03-29T02:08:14.326Z,5.24
2018-03-29T02:09:14.245Z,5.22
2018-03-29T02:10:14.174Z,5.25
2018-03-29T02:11:14.084Z,5.25
2018-03-29T02:12:14.003Z,5.28
2018-03-29T02:13:13.923Z,5.21
2018-03-29T02:14:13.847Z,5.24
2018-03-29T02:15:13.808Z,5.18
2018-03-29T02:16:13.682Z,5.18
2018-03-29T02:17:13.600Z,5.24
2018-03-29T02:18:13.524Z,5.30
2018-03-29T02:19:13.438Z,5.25
2018-03-29T02:20:13.356Z,5.28
2018-03-29T02:21:13.277Z,5.31
2018-03-29T02:22:13.197Z,5.38
2018-03-29T02:23:13.115Z,5.28
2018-03-29T02:24:13.035Z,5.22
2018-03-29T02:25:12.953Z,5.24
2018-03-29T02:26:12.876Z,5.31
2018-03-29T02:27:12.792Z,5.25
2018-03-29T02:28:12.714Z,5.36
2018-03-29T02:29:12.635Z,5.35
2018-03-29T02:30:12.556Z,5.27
2018-03-29T02:31:12.472Z,5.21
2018-03-29T02:32:12.393Z,5.25
2018-03-29T02:33:12.314Z,5.35
2018-03-29T02:34:12.228Z,5.25
2018-03-29T02:35:12.151Z,5.28
2018-03-29T02:36:12.071Z,5.31
2018-03-29T02:37:11.990Z,5.31
2018-03-29T02:38:11.908Z,5.33
2018-03-29T02:39:11.826Z,5.31
2018-03-29T02:40:11.751Z,5.38
2018-03-29T02:41:11.667Z,5.28
2018-03-29T02:42:11.586Z,5.42
2018-03-29T02:43:11.516Z,5.38
2018-03-29T02:44:11.427Z,5.35
2018-03-29T02:45:11.344Z,5.39
2018-03-29T02:46:11.265Z,5.43
2018-03-29T02:47:11.179Z,5.35
2018-03-29T02:48:11.105Z,5.35
2018-03-29T02:49:11.023Z,5.36
2018-03-29T02:50:10.945Z,5.39
2018-03-29T02:51:10.860Z,5.42
2018-03-29T02:52:10.784Z,5.39
2018-03-29T02:53:10.707Z,5.51
2018-03-29T02:54:10.619Z,5.53
2018-03-29T02:55:10.558Z,5.53
2018-03-29T02:56:10.474Z,5.48
2018-03-29T02:57:10.379Z,5.48
2018-03-29T02:58:10.294Z,5.51
2018-03-29T02:59:10.217Z,5.46
2018-03-29T03:00:10.135Z,5.48
2018-03-29T03:01:10.054Z,5.51
2018-03-29T03:02:09.976Z,5.49
2018-03-29T03:03:09.894Z,5.56
2018-03-29T03:04:09.813Z,5.58
2018-03-29T03:05:09.742Z,5.57
2018-03-29T03:06:09.654Z,5.51
2018-03-29T03:07:09.573Z,5.49
2018-03-29T03:08:09.492Z,5.51
2018-03-29T03:09:09.417Z,5.56
2018-03-29T03:10:09.331Z,5.54
2018-03-29T03:11:09.250Z,5.57
2018-03-29T03:12:09.170Z,5.51
2018-03-29T03:13:09.088Z,5.58
2018-03-29T03:14:09.008Z,5.51
2018-03-29T03:15:08.932Z,5.57
2018-03-29T03:16:08.851Z,5.60
2018-03-29T03:17:08.769Z,5.54
2018-03-29T03:18:08.686Z,5.43
2018-03-29T03:19:08.614Z,5.53
2018-03-29T03:20:08.525Z,5.56
2018-03-29T03:21:08.448Z,5.54
2018-03-29T03:22:08.365Z,5.54
2018-03-29T03:23:08.284Z,5.57
2018-03-29T03:24:08.204Z,5.51
2018-03-29T03:25:08.125Z,5.53
2018-03-29T03:26:08.046Z,5.53
2018-03-29T03:27:07.965Z,5.49
2018-03-29T03:28:07.883Z,5.53
2018-03-29T03:29:07.806Z,5.49
2018-03-29T03:30:07.724Z,5.40
2018-03-29T03:31:07.644Z,5.48
2018-03-29T03:32:07.560Z,5.48
2018-03-29T03:33:07.484Z,5.48
2018-03-29T03:34:07.404Z,5.43
2018-03-29T03:35:07.319Z,5.53
2018-03-29T03:36:07.238Z,5.56
2018-03-29T03:37:07.179Z,5.61
2018-03-29T03:38:07.079Z,5.49
2018-03-29T03:39:06.999Z,5.57
2018-03-29T03:40:06.917Z,5.46
2018-03-29T03:41:06.838Z,5.49
2018-03-29T03:42:06.761Z,5.56
2018-03-29T03:43:06.676Z,5.57
2018-03-29T03:44:06.597Z,5.54
2018-03-29T03:45:06.517Z,5.56
2018-03-29T03:46:06.429Z,5.58
2018-03-29T03:47:06.355Z,5.48
2018-03-29T03:48:06.275Z,5.46
2018-03-29T03:49:06.198Z,5.56
2018-03-29T03:50:06.121Z,5.56
2018-03-29T03:51:06.035Z,5.60
2018-03-29T03:52:05.951Z,5.63
2018-03-29T03:53:05.875Z,5.57
2018-03-29T03:54:05.792Z,5.58
2018-03-29T03:55:05.713Z,5.54
2018-03-29T03:56:05.630Z,5.53
2018-03-29T03:57:05.551Z,5.54
2018-03-29T03:58:05.469Z,5.57
2018-03-29T03:59:05.389Z,5.53
2018-03-29T04:00:05.309Z,5.46
2018-03-29T04:01:05.235Z,5.57
2018-03-29T04:02:05.149Z,5.57
2018-03-29T04:03:05.073Z,5.61
2018-03-29T04:04:04.987Z,5.56
2018-03-29T04:05:04.909Z,5.57
2018-03-29T04:06:04.836Z,5.58
2018-03-29T04:07:04.750Z,5.61
2018-03-29T04:08:04.661Z,5.54
2018-03-29T04:09:04.586Z,5.58
2018-03-29T04:10:04.504Z,5.54
2018-03-29T04:11:04.425Z,5.48
2018-03-29T04:12:04.345Z,5.57
2018-03-29T04:13:04.264Z,5.53
2018-03-29T04:14:04.181Z,5.43
2018-03-29T04:15:04.105Z,5.46
2018-03-29T04:16:04.023Z,5.39
2018-03-29T04:17:03.945Z,5.38
2018-03-29T04:18:03.862Z,5.48
2018-03-29T04:19:03.782Z,5.38
2018-03-29T04:20:03.702Z,5.40
2018-03-29T04:21:03.624Z,5.51
2018-03-29T04:22:03.540Z,5.46
2018-03-29T04:23:03.461Z,5.49
2018-03-29T04:24:03.381Z,5.48
2018-03-29T04:25:03.301Z,5.51
2018-03-29T04:26:03.222Z,5.45
2018-03-29T04:27:03.139Z,5.53
2018-03-29T04:28:03.057Z,5.56
2018-03-29T04:29:02.978Z,5.48
2018-03-29T04:30:02.897Z,5.48
2018-03-29T04:31:02.821Z,5.45
2018-03-29T04:32:02.738Z,5.49
2018-03-29T04:33:02.657Z,5.49
2018-03-29T04:34:02.574Z,5.49
2018-03-29T04:35:02.495Z,5.49
2018-03-29T04:36:02.418Z,5.57
2018-03-29T04:37:02.360Z,5.56
2018-03-29T04:38:02.253Z,5.54
2018-03-29T04:39:02.175Z,5.51
2018-03-29T04:40:02.092Z,5.43
2018-03-29T04:41:02.016Z,5.46
2018-03-29T04:42:01.936Z,5.54
2018-03-29T04:43:01.854Z,5.51
2018-03-29T04:44:01.774Z,5.53
2018-03-29T04:45:01.693Z,5.49
2018-03-29T04:46:01.614Z,5.53
2018-03-29T04:47:01.563Z,5.54
2018-03-29T04:48:01.452Z,5.56
2018-03-29T04:49:01.372Z,5.56
2018-03-29T04:50:01.293Z,5.54
2018-03-29T04:51:01.211Z,5.40
2018-03-29T04:52:01.131Z,5.53
2018-03-29T04:53:01.052Z,5.42
2018-03-29T04:54:00.989Z,5.51
2018-03-29T04:55:00.919Z,5.54
2018-03-29T04:56:00.821Z,5.57
2018-03-29T04:57:00.730Z,5.51
2018-03-29T04:58:00.655Z,5.57
2018-03-29T04:59:00.577Z,5.54
2018-03-29T05:00:00.492Z,5.54
2018-03-29T05:01:00.409Z,5.56
2018-03-29T05:02:00.329Z,5.54
2018-03-29T05:03:00.246Z,5.56
2018-03-29T05:04:00.168Z,5.58
2018-03-29T05:05:00.087Z,5.53
2018-03-29T05:06:00.018Z,5.58
2018-03-29T05:06:59.926Z,5.60
2018-03-29T05:07:59.846Z,5.57
2018-03-29T05:08:59.773Z,5.60
2018-03-29T05:09:59.686Z,5.65
2018-03-29T05:10:59.604Z,5.60
2018-03-29T05:11:59.524Z,5.63
2018-03-29T05:12:59.444Z,5.60
2018-03-29T05:13:59.362Z,5.60
2018-03-29T05:14:59.287Z,5.63
2018-03-29T05:15:59.207Z,5.63
2018-03-29T05:16:59.122Z,5.58
2018-03-29T05:17:59.042Z,5.64
2018-03-29T05:18:58.963Z,5.67
2018-03-29T05:19:58.885Z,5.68
2018-03-29T05:20:58.804Z,5.65
2018-03-29T05:21:58.724Z,5.72
2018-03-29T05:22:58.642Z,5.65
2018-03-29T05:23:58.561Z,5.64
2018-03-29T05:24:58.489Z,5.64
2018-03-29T05:25:58.404Z,5.65
2018-03-29T05:26:58.323Z,5.68
2018-03-29T05:27:58.243Z,5.64
2018-03-29T05:28:58.162Z,5.65
2018-03-29T05:29:58.079Z,5.71
2018-03-29T05:30:58.000Z,5.67
2018-03-29T05:31:57.927Z,5.67
2018-03-29T05:32:57.838Z,5.67
2018-03-29T05:33:57.759Z,5.64
2018-03-29T05:34:57.681Z,5.68
2018-03-29T05:35:57.600Z,5.65
2018-03-29T05:36:57.519Z,5.65
2018-03-29T05:37:57.438Z,5.64
2018-03-29T05:38:57.356Z,5.63
2018-03-29T05:39:57.278Z,5.61
2018-03-29T05:40:57.201Z,5.65
2018-03-29T05:41:57.114Z,5.64
2018-03-29T05:42:57.037Z,5.68
2018-03-29T05:43:56.958Z,5.75
2018-03-29T05:44:56.880Z,5.71
2018-03-29T05:45:56.800Z,5.74
2018-03-29T05:46:56.771Z,5.74
2018-03-29T05:47:56.637Z,5.67
2018-03-29T05:48:56.556Z,5.81
2018-03-29T05:49:56.478Z,5.75
2018-03-29T05:50:56.401Z,5.85
2018-03-29T05:51:56.314Z,5.79
2018-03-29T05:52:56.237Z,5.85
2018-03-29T05:53:56.154Z,5.78
2018-03-29T05:54:56.075Z,5.79
2018-03-29T05:55:55.998Z,5.85
2018-03-29T05:56:55.916Z,5.86
2018-03-29T05:57:55.838Z,5.89
2018-03-29T05:58:55.754Z,5.91
2018-03-29T05:59:55.676Z,5.89
2018-03-29T06:00:55.596Z,5.96
2018-03-29T06:01:55.515Z,5.90
2018-03-29T06:02:55.435Z,5.93
2018-03-29T06:03:55.355Z,5.99
2018-03-29T06:04:55.276Z,5.94
2018-03-29T06:05:55.196Z,5.94
2018-03-29T06:06:55.120Z,5.96
2018-03-29T06:07:55.038Z,6.01
2018-03-29T06:08:54.957Z,5.94
2018-03-29T06:09:54.875Z,6.08
2018-03-29T06:10:54.797Z,6.04
2018-03-29T06:11:54.723Z,6.06
2018-03-29T06:12:54.646Z,5.99
2018-03-29T06:13:54.555Z,6.03
2018-03-29T06:14:54.475Z,5.97
2018-03-29T06:15:54.398Z,6.00
2018-03-29T06:16:54.316Z,6.01
2018-03-29T06:17:54.237Z,6.09
2018-03-29T06:18:54.156Z,6.00
2018-03-29T06:19:54.079Z,5.97
2018-03-29T06:20:54.000Z,5.97
2018-03-29T06:21:53.917Z,5.97
2018-03-29T06:22:53.838Z,5.99
2018-03-29T06:23:53.760Z,6.01
2018-03-29T06:24:53.683Z,6.00
2018-03-29T06:25:53.601Z,6.08
2018-03-29T06:26:53.526Z,6.03
2018-03-29T06:27:53.442Z,6.04
2018-03-29T06:28:53.362Z,6.06
2018-03-29T06:29:53.284Z,6.11
2018-03-29T06:30:53.201Z,6.08
2018-03-29T06:31:53.123Z,6.18
2018-03-29T06:32:53.128Z,6.18
2018-03-29T06:33:52.963Z,6.25
2018-03-29T06:34:52.886Z,6.17
2018-03-29T06:35:52.804Z,6.15
2018-03-29T06:36:52.727Z,6.22
2018-03-29T06:37:52.645Z,6.25
2018-03-29T06:38:52.565Z,6.22
2018-03-29T06:39:52.485Z,6.33
2018-03-29T06:40:52.404Z,6.30
2018-03-29T06:41:52.323Z,6.33
2018-03-29T06:42:52.244Z,6.31
2018-03-29T06:43:52.165Z,6.28
2018-03-29T06:44:52.089Z,6.33
2018-03-29T06:45:52.011Z,6.36
2018-03-29T06:46:51.928Z,6.33
2018-03-29T06:47:51.850Z,6.40
2018-03-29T06:48:51.770Z,6.41
2018-03-29T06:49:51.689Z,6.46
2018-03-29T06:50:51.609Z,6.44
2018-03-29T06:51:51.538Z,6.56
2018-03-29T06:52:51.451Z,6.46
2018-03-29T06:53:51.369Z,6.52
2018-03-29T06:54:51.332Z,6.46
2018-03-29T06:55:51.214Z,6.43
2018-03-29T06:56:51.136Z,6.43
2018-03-29T06:57:51.052Z,6.49
2018-03-29T06:58:50.972Z,6.58
2018-03-29T06:59:50.894Z,6.59
2018-03-29T07:00:50.862Z,6.59
2018-03-29T07:01:50.734Z,6.54
2018-03-29T07:02:50.655Z,6.46
2018-03-29T07:03:50.578Z,6.55
2018-03-29T07:04:50.498Z,6.54
2018-03-29T07:05:50.416Z,6.49
2018-03-29T07:06:50.338Z,6.49
2018-03-29T07:07:50.259Z,6.46
2018-03-29T07:08:50.184Z,6.54
2018-03-29T07:09:50.101Z,6.52
2018-03-29T07:10:50.022Z,6.51
2018-03-29T07:11:49.943Z,6.61
2018-03-29T07:12:49.866Z,6.58
2018-03-29T07:13:49.783Z,6.61
2018-03-29T07:14:49.706Z,6.73
2018-03-29T07:15:49.625Z,6.80
2018-03-29T07:16:49.550Z,6.87
2018-03-29T07:17:49.467Z,6.87
2018-03-29T07:18:49.387Z,6.89
2018-03-29T07:19:49.310Z,6.91
2018-03-29T07:20:49.231Z,7.02
2018-03-29T07:21:49.148Z,6.95
2018-03-29T07:22:49.072Z,6.74
2018-03-29T07:23:48.996Z,6.89
2018-03-29T07:24:48.914Z,6.87
2018-03-29T07:25:48.837Z,6.87
2018-03-29T07:26:48.756Z,6.97
2018-03-29T07:27:48.677Z,6.88
2018-03-29T07:28:48.599Z,6.98
2018-03-29T07:29:48.519Z,6.95
2018-03-29T07:30:48.441Z,6.92
2018-03-29T07:31:48.357Z,6.99
2018-03-29T07:32:48.284Z,6.87
2018-03-29T07:33:48.205Z,6.88
2018-03-29T07:34:48.125Z,6.98
2018-03-29T07:35:48.047Z,6.91
2018-03-29T07:36:47.969Z,6.95
2018-03-29T07:37:47.925Z,7.07
2018-03-29T07:38:47.810Z,6.99
2018-03-29T07:39:47.735Z,6.99
2018-03-29T07:40:47.653Z,6.95
2018-03-29T07:41:47.568Z,6.95
2018-03-29T07:42:47.496Z,7.06
2018-03-29T07:43:47.420Z,7.02
2018-03-29T07:44:47.339Z,6.99
2018-03-29T07:45:47.260Z,7.02
2018-03-29T07:46:47.180Z,6.97
2018-03-29T07:47:47.099Z,6.98
2018-03-29T07:48:47.024Z,6.97
2018-03-29T07:49:46.942Z,7.10
2018-03-29T07:50:46.867Z,7.05
2018-03-29T07:51:46.786Z,7.21
2018-03-29T07:52:46.709Z,7.16
2018-03-29T07:53:46.629Z,7.10
2018-03-29T07:54:46.550Z,7.13
2018-03-29T07:55:46.472Z,7.13
2018-03-29T07:56:46.395Z,7.06
2018-03-29T07:57:46.312Z,7.15
2018-03-29T07:58:46.235Z,6.98
2018-03-29T07:59:46.155Z,7.09
2018-03-29T08:00:46.076Z,7.03
2018-03-29T08:01:46.004Z,7.05
2018-03-29T08:02:45.917Z,7.06
2018-03-29T08:03:45.844Z,7.16
2018-03-29T08:04:45.760Z,7.21
2018-03-29T08:05:45.681Z,7.23
2018-03-29T08:06:45.601Z,7.15
2018-03-29T08:07:45.530Z,7.20
2018-03-29T08:08:45.445Z,7.21
2018-03-29T08:09:45.363Z,7.20
2018-03-29T08:10:45.289Z,7.31
2018-03-29T08:11:45.209Z,7.28
2018-03-29T08:12:45.132Z,7.34
2018-03-29T08:13:45.062Z,7.25
2018-03-29T08:14:44.972Z,7.24
2018-03-29T08:15:44.894Z,7.28
2018-03-29T08:16:44.815Z,7.28
2018-03-29T08:17:44.735Z,7.35
2018-03-29T08:18:44.656Z,7.46
2018-03-29T08:19:44.577Z,7.34
2018-03-29T08:20:44.508Z,7.42
2018-03-29T08:21:44.423Z,7.37
2018-03-29T08:22:44.342Z,7.35
2018-03-29T08:23:44.265Z,7.46
2018-03-29T08:24:44.185Z,7.46
2018-03-29T08:25:44.111Z,7.64
2018-03-29T08:26:44.027Z,7.37
2018-03-29T08:27:43.949Z,7.53
2018-03-29T08:28:43.870Z,7.53
2018-03-29T08:29:43.792Z,7.67
2018-03-29T08:30:43.713Z,7.55
2018-03-29T08:31:43.637Z,7.46
2018-03-29T08:32:43.555Z,7.55
2018-03-29T08:33:43.476Z,7.55
2018-03-29T08:34:43.397Z,7.61
2018-03-29T08:35:43.320Z,7.77
2018-03-29T08:36:43.241Z,7.72
2018-03-29T08:37:43.166Z,7.68
2018-03-29T08:38:43.084Z,7.77
2018-03-29T08:39:43.006Z,7.67
2018-03-29T08:40:42.930Z,7.71
2018-03-29T08:41:42.849Z,7.61
2018-03-29T08:42:42.770Z,7.72
2018-03-29T08:43:42.693Z,7.85
2018-03-29T08:44:42.615Z,7.79
2018-03-29T08:45:42.535Z,7.85
2018-03-29T08:46:42.461Z,7.87
2018-03-29T08:47:42.383Z,7.92
2018-03-29T08:48:42.302Z,7.83
2018-03-29T08:49:42.221Z,7.85
2018-03-29T08:50:42.144Z,7.89
2018-03-29T08:51:42.073Z,8.04
2018-03-29T08:52:41.988Z,7.93
2018-03-29T08:53:41.909Z,8.01
2018-03-29T08:54:41.830Z,7.89
2018-03-29T08:55:41.756Z,7.92
2018-03-29T08:56:41.677Z,7.93
2018-03-29T08:57:41.599Z,8.00
2018-03-29T08:58:41.518Z,8.04
2018-03-29T08:59:41.440Z,8.02
2018-03-29T09:00:41.361Z,8.18
2018-03-29T09:01:41.280Z,8.20
2018-03-29T09:02:41.211Z,8.22
2018-03-29T09:03:41.130Z,8.25
2018-03-29T09:04:41.050Z,8.18
2018-03-29T09:05:40.972Z,8.23
2018-03-29T09:06:40.893Z,8.12
2018-03-29T09:07:40.813Z,8.10
2018-03-29T09:08:40.739Z,8.10
2018-03-29T09:09:40.661Z,8.10
2018-03-29T09:10:40.584Z,8.04
2018-03-29T09:11:40.502Z,7.87
2018-03-29T09:12:40.428Z,8.04
2018-03-29T09:13:40.349Z,8.05
2018-03-29T09:14:40.281Z,8.11
2018-03-29T09:15:40.198Z,8.10
2018-03-29T09:16:40.117Z,8.11
2018-03-29T09:17:40.037Z,8.08
2018-03-29T09:18:39.963Z,8.11
2018-03-29T09:19:39.881Z,8.08
2018-03-29T09:20:39.806Z,8.23
2018-03-29T09:21:39.726Z,8.38
2018-03-29T09:22:39.648Z,8.34
2018-03-29T09:23:39.571Z,8.22
2018-03-29T09:24:39.492Z,8.52
2018-03-29T09:25:39.411Z,8.47
2018-03-29T09:26:39.339Z,8.62
2018-03-29T09:27:39.260Z,8.63
2018-03-29T09:28:39.182Z,8.55
2018-03-29T09:29:39.105Z,8.87
2018-03-29T09:30:39.027Z,8.92
2018-03-29T09:31:38.953Z,8.81
2018-03-29T09:32:38.871Z,8.74
2018-03-29T09:33:38.798Z,8.73
2018-03-29T09:34:38.714Z,8.76
2018-03-29T09:35:38.680Z,8.92
2018-03-29T09:36:38.564Z,9.17
2018-03-29T09:37:38.490Z,9.42
2018-03-29T09:38:38.411Z,9.48
2018-03-29T09:39:38.333Z,9.40
2018-03-29T09:40:38.255Z,9.54
2018-03-29T09:41:38.213Z,9.36
2018-03-29T09:42:38.101Z,9.69
2018-03-29T09:43:38.029Z,9.38
2018-03-29T09:44:37.964Z,8.94
2018-03-29T09:45:37.881Z,8.76
2018-03-29T09:46:37.797Z,8.66
2018-03-29T09:47:37.722Z,8.86
2018-03-29T09:48:37.649Z,8.87
2018-03-29T09:49:37.568Z,8.91
2018-03-29T09:50:37.497Z,9.13
2018-03-29T09:51:37.416Z,9.13
2018-03-29T09:52:37.341Z,9.24
2018-03-29T09:53:37.266Z,9.36
2018-03-29T09:54:37.188Z,9.43
2018-03-29T09:55:37.112Z,9.66
2018-03-29T09:56:37.033Z,9.74
2018-03-29T09:57:36.956Z,11.03
2018-03-29T09:58:36.883Z,10.63
2018-03-29T09:59:36.806Z,9.93
2018-03-29T10:00:36.729Z,10.17
2018-03-29T10:01:36.654Z,10.33
2018-03-29T10:02:36.585Z,10.05
2018-03-29T10:03:36.504Z,10.08
2018-03-29T10:04:36.433Z,10.01
2018-03-29T10:05:36.353Z,10.01
2018-03-29T10:06:36.278Z,10.14
2018-03-29T10:07:36.204Z,10.30
2018-03-29T10:08:36.129Z,10.11
2018-03-29T10:09:36.053Z,9.91
2018-03-29T10:10:35.981Z,9.87
2018-03-29T10:11:35.902Z,10.25
2018-03-29T10:12:35.829Z,10.92
2018-03-29T10:13:35.765Z,11.47
2018-03-29T10:14:35.679Z,12.10
2018-03-29T10:15:35.605Z,11.94
2018-03-29T10:16:35.530Z,11.29
2018-03-29T10:17:35.456Z,10.99
2018-03-29T10:18:35.382Z,10.94
2018-03-29T10:19:35.308Z,11.73
2018-03-29T10:20:35.235Z,11.52
2018-03-29T10:21:35.159Z,11.67
2018-03-29T10:22:35.088Z,11.95
2018-03-29T10:23:35.015Z,12.82
2018-03-29T10:24:34.940Z,13.41
2018-03-29T10:25:34.865Z,12.35
2018-03-29T10:26:34.796Z,12.35
2018-03-29T10:27:34.723Z,13.10
2018-03-29T10:28:34.652Z,12.45
2018-03-29T10:29:34.576Z,11.83
2018-03-29T10:30:34.503Z,11.65
2018-03-29T10:31:34.432Z,12.04
2018-03-29T10:32:34.364Z,12.02
2018-03-29T10:33:34.288Z,11.78
2018-03-29T10:34:34.216Z,11.62
2018-03-29T10:35:34.150Z,11.44
2018-03-29T10:36:34.073Z,11.03
2018-03-29T10:37:34.001Z,11.19
2018-03-29T10:38:33.928Z,11.54
2018-03-29T10:39:33.857Z,11.88
2018-03-29T10:40:33.802Z,11.61
2018-03-29T10:41:33.714Z,10.88
2018-03-29T10:42:33.643Z,10.99
2018-03-29T10:43:33.572Z,11.17
2018-03-29T10:44:33.497Z,11.61
2018-03-29T10:45:33.425Z,12.45
2018-03-29T10:46:33.358Z,12.04
2018-03-29T10:47:33.281Z,11.98
2018-03-29T10:48:33.223Z,12.28
2018-03-29T10:49:33.135Z,12.27
2018-03-29T10:50:33.073Z,12.31
2018-03-29T10:51:32.992Z,12.21
2018-03-29T10:52:32.972Z,12.20
2018-03-29T10:53:32.847Z,11.46
2018-03-29T10:54:32.779Z,11.44
2018-03-29T10:55:32.704Z,11.64
2018-03-29T10:56:32.630Z,11.86
2018-03-29T10:57:32.557Z,12.16
2018-03-29T10:58:32.485Z,12.54
2018-03-29T10:59:32.407Z,12.39
2018-03-29T11:00:32.340Z,12.53
2018-03-29T11:01:32.266Z,12.59
2018-03-29T11:02:32.193Z,12.35
2018-03-29T11:03:32.118Z,12.13
2018-03-29T11:04:32.047Z,12.19
2018-03-29T11:05:31.979Z,12.05
2018-03-29T11:06:31.901Z,12.16
2018-03-29T11:07:31.828Z,12.65
2018-03-29T11:08:31.754Z,12.42
2018-03-29T11:09:31.680Z,12.20
2018-03-29T11:10:31.613Z,12.47
2018-03-29T11:11:31.537Z,12.16
2018-03-29T11:12:31.464Z,11.95
2018-03-29T11:13:31.392Z,11.60
2018-03-29T11:14:31.317Z,11.17
2018-03-29T11:15:31.245Z,10.97
2018-03-29T11:16:31.171Z,11.04
2018-03-29T11:17:31.100Z,10.82
2018-03-29T11:18:31.023Z,11.14
2018-03-29T11:19:30.958Z,11.18
2018-03-29T11:20:30.881Z,11.32
2018-03-29T11:21:30.807Z,11.51
2018-03-29T11:22:30.732Z,11.82
2018-03-29T11:23:30.660Z,12.04
2018-03-29T11:24:30.589Z,11.72
2018-03-29T11:25:30.514Z,11.10
2018-03-29T11:26:30.438Z,10.41
2018-03-29T11:27:30.367Z,9.87
2018-03-29T11:28:30.289Z,9.38
2018-03-29T11:29:30.217Z,9.05
2018-03-29T11:30:30.143Z,8.76
2018-03-29T11:31:30.075Z,8.63
2018-03-29T11:32:29.995Z,8.37
2018-03-29T11:33:29.926Z,8.34
2018-03-29T11:34:29.843Z,8.38
2018-03-29T11:35:29.768Z,8.40
2018-03-29T11:36:29.695Z,8.23
2018-03-29T11:37:29.629Z,8.08
2018-03-29T11:38:29.548Z,8.12
2018-03-29T11:39:29.471Z,7.97
2018-03-29T11:40:29.392Z,7.98
2018-03-29T11:41:29.321Z,8.12
2018-03-29T11:42:29.240Z,8.22
2018-03-29T11:43:29.164Z,8.15
2018-03-29T11:44:29.090Z,8.23
2018-03-29T11:45:29.011Z,8.20
2018-03-29T11:46:28.933Z,8.05
2018-03-29T11:47:28.857Z,8.77
2018-03-29T11:48:28.789Z,9.08
2018-03-29T11:49:28.702Z,9.91
2018-03-29T11:50:28.627Z,10.25
2018-03-29T11:51:28.549Z,10.81
2018-03-29T11:52:28.472Z,11.46
2018-03-29T11:53:28.395Z,11.94
2018-03-29T11:54:28.322Z,12.20
2018-03-29T11:55:28.242Z,11.79
2018-03-29T11:56:28.168Z,11.61
2018-03-29T11:57:28.092Z,11.75
2018-03-29T11:58:28.016Z,11.88
2018-03-29T11:59:27.942Z,12.37
2018-03-29T12:00:27.867Z,12.89
2018-03-29T12:01:27.792Z,12.92
2018-03-29T12:02:27.717Z,12.82
2018-03-29T12:03:27.642Z,12.77
2018-03-29T12:04:27.568Z,13.04
2018-03-29T12:05:27.493Z,12.71
2018-03-29T12:06:27.419Z,12.68
2018-03-29T12:07:27.344Z,12.95
2018-03-29T12:08:27.282Z,13.08
2018-03-29T12:09:27.197Z,12.96
2018-03-29T12:10:27.123Z,12.70
2018-03-29T12:11:27.050Z,12.75
2018-03-29T12:12:26.976Z,12.70
2018-03-29T12:13:26.903Z,12.59
2018-03-29T12:14:26.829Z,12.59
2018-03-29T12:15:26.753Z,12.78
2018-03-29T12:16:26.681Z,13.38
2018-03-29T12:17:26.606Z,14.10
2018-03-29T12:18:26.534Z,14.58
2018-03-29T12:19:26.458Z,14.61
2018-03-29T12:20:26.384Z,14.73
2018-03-29T12:21:26.311Z,14.09
2018-03-29T12:22:26.240Z,13.99
2018-03-29T12:23:26.166Z,14.32
2018-03-29T12:24:26.095Z,14.89
2018-03-29T12:25:26.024Z,14.62
2018-03-29T12:26:25.947Z,14.46
2018-03-29T12:27:25.879Z,13.62
2018-03-29T12:28:25.805Z,13.51
2018-03-29T12:29:25.762Z,12.78
2018-03-29T12:30:25.662Z,12.64
2018-03-29T12:31:25.592Z,12.74
2018-03-29T12:32:25.520Z,13.32
2018-03-29T12:33:25.445Z,13.66
2018-03-29T12:34:25.371Z,13.36
2018-03-29T12:35:25.304Z,13.54
2018-03-29T12:36:25.230Z,13.33
2018-03-29T12:37:25.161Z,13.14
2018-03-29T12:38:25.086Z,13.15
2018-03-29T12:39:25.018Z,12.70
2018-03-29T12:40:24.946Z,12.45
2018-03-29T12:41:24.871Z,12.46
2018-03-29T12:42:24.808Z,12.34
2018-03-29T12:43:24.727Z,11.76
2018-03-29T12:44:24.656Z,11.51
2018-03-29T12:45:24.581Z,11.24
2018-03-29T12:46:24.508Z,11.15
2018-03-29T12:47:24.437Z,11.22
2018-03-29T12:48:24.375Z,11.14
2018-03-29T12:49:24.290Z,11.29
2018-03-29T12:50:24.276Z,11.43
2018-03-29T12:51:24.143Z,11.60
2018-03-29T12:52:24.073Z,11.90
2018-03-29T12:53:23.995Z,11.73
2018-03-29T12:54:23.922Z,11.47
2018-03-29T12:55:23.848Z,11.62
2018-03-29T12:56:23.777Z,11.91
2018-03-29T12:57:23.699Z,12.10
2018-03-29T12:58:23.624Z,12.42
2018-03-29T12:59:23.561Z,12.77
2018-03-29T13:00:23.478Z,13.01
2018-03-29T13:01:23.404Z,13.03
2018-03-29T13:02:23.331Z,13.05
2018-03-29T13:03:23.255Z,13.29
2018-03-29T13:04:23.181Z,13.32
2018-03-29T13:05:23.107Z,13.38
2018-03-29T13:06:23.034Z,13.00
2018-03-29T13:07:22.963Z,12.62
2018-03-29T13:08:22.888Z,12.32
2018-03-29T13:09:22.812Z,12.23
2018-03-29T13:10:22.748Z,12.24
2018-03-29T13:11:22.674Z,12.17